Pacatuba, Brazil
Current Conditions -  °F | °C
As of 8:00 AM on Monday 20 Oct 2014 (Local Time) from SBAR Reporting Station
Scattered Clouds Scattered Clouds  
Wind Chill: 81°   Ceiling: Unl
Heat Index: 83°   Visibility: 6mi
Dew Point: 68°   Wind: 13mph
Humidity: 65%   Direction: 70°ENE
Pressure: 29.94"   Gusts: NA
Location:  10.45°S, 36.65°W
Report Text: SBAR 201100Z 07011KT 9999 SCT016 27/20 Q1014
Loading
Personal Weather Stations






























Interactive Weather Map
Tropical Storm Tracking
New forecast layout! Learn more

10-Day Weather Forecast

Advertisements
Track Severe Weather on mobile